Hlavní strana
METAR-TAF:

METAR-TAF

Letiště :

Pointe-Noire, Kongo

zeměpisná šířka: 04-49S, zeměpisná délka: 011-54E, výška: 17 m

Aktuální stav počasí

Zpráva byla vytvořena před 9 hodinami a 7 minutami, v 19:00 UTC
Jižní vítr 6 kt
Teplota 22°C
Vlhkost vzduchu 88%
Tlak 1015 hPa
Viditelnost: 8000 m
Skoro jasno ve výšce 1000 ft
Polojasno ve výšce 2300 ft

METAR: FCPP 181900Z 18006KT 8000 FEW010 SCT023 22/20 Q1015 NOSIG

Čas: 05:07 (04:07 UTC)

Předpověď počasí

Zpráva byla vytvořena před 11 hodinami a 7 minutami, v 17:00 UTC
Předpověď platná od 18 v 18 UTC do 19 v 18 UTC
Jihojihozápadní vítr 8 kt
Viditelnost: 8000 m
Polojasno ve výšce 1300 ft
Oblačno až skoro zataženo ve výšce 2300 ft
Pravděpodobnost 30%
od 19 v 04 UTC do 19 v 08 UTC
Viditelnost: 4000 m
kouřmo

TAF: FCPP 181700Z 1818/1918 20008KT 8000 SCT013 BKN023 PROB30 1904/1908 4000 BR

Stav a předpovědi počasí z více než 4 000 letišť (zprávy METAR a TAF).

Červené a žluté tečky na mapě představují dostupné meteorologické stanice.

Když kurzor umístíte na tečku, zobrazí se název stanice.

Pak kliknutím zobrazíte stav a předpověď počasí.

Chcete-li změnit mapu, kliknutím na zelené tlačítko se znaménkem +mapu přiblížíte, kliknutím na zelené tlačítko se znaménkem – mapu oddálíte a kliknutím na zelené šipky přejdete na sousední mapy.


METAR-TAF: